首页
METAR-TAF:

METAR-TAF

机场 :

Clemson, 南卡罗来纳州, 美国

纬度: 34-40-20N, 经度: 082-52-53W, 海拔: 272米

当前天气观测

该预报发布于33分钟前的06:54 UTC
风速5节,风向西转西南
温度 23°C
湿度 94%
气压 1016 hPa
能見度: 9.7公里
天空无云
轻雾

METAR: KCEU 200654Z AUTO 25005KT 6SM BR CLR 23/22 A3001 RMK AO2 SLP151 T02280222

时间: 03:27 (07:27 UTC)


TAF: 丢失

超过4000个机场的气象观测和天气预报(METAR&TAF报告)。

可查询的气象台以黄色和红色小点在地图上表示。

将鼠标移到小点上方,可查看气象台名称。

然后点击查看天气观测和预报。

如需切换地图:点击带黑十字的绿色按钮放大地图;点击带横线的绿色按钮缩小地图;或者点击绿色箭头查看邻近地区的地图。


METAR-TAF: